Princeton's Hourly Summary for Wednesday, July 11, 2018
Hour Temp
(f)
RH
(%)
Solar Rad.
(MJ/m2)
Rainfall
(in)
Wind
(mph)
7/11/2018 12:00 AM 78 73 0 0 0.08
7/11/2018 1:00 AM 77 75 0 0 0.01
7/11/2018 2:00 AM 76 78 0 0 0
7/11/2018 3:00 AM 76 82 0 0 0.07
7/11/2018 4:00 AM 76 94 0 0 0.09
7/11/2018 5:00 AM 75 99 0 0 0
7/11/2018 6:00 AM 74 99 0 0 0.03
7/11/2018 7:00 AM 74 99 0.03 0 0.01
7/11/2018 8:00 AM 76 89 0.19 0 0.44
7/11/2018 9:00 AM 78 76 0.52 0 2.59
7/11/2018 10:00 AM 81 68 1.09 0 3.43
7/11/2018 11:00 AM 83 64 1.38 0 3.74
7/11/2018 12:00 PM 85 56 1.62 0 3.6
7/11/2018 1:00 PM 90 43 2.89 0 4.18
7/11/2018 2:00 PM 92 43 2.13 0 5.08
7/11/2018 3:00 PM 93 35 2.84 0 4.98
7/11/2018 4:00 PM 94 34 2.67 0 4.54
7/11/2018 5:00 PM 96 31 2.28 0 3.76
7/11/2018 6:00 PM 93 30 0.91 0 6.04
7/11/2018 7:00 PM 91 44 0.74 0 5.39
7/11/2018 8:00 PM 89 51 0.55 0 4.8
7/11/2018 9:00 PM 86 55 0.04 0 2.3
7/11/2018 10:00 PM 83 61 0 0 1.91
7/11/2018 11:00 PM 81 64 0 0 3.1
Data Summary 83 64 19.88 0.00 2.51